sensor_id;sensor_type;location;lat;lon;timestamp;P1;durP1;ratioP1;P2;durP2;ratioP2
70416;SDS011;57839;51.332;12.410;2022-08-19T00:02:24;26.10;;;22.15;;
70416;SDS011;57839;51.332;12.410;2022-08-19T00:04:49;30.00;;;23.38;;
70416;SDS011;57839;51.332;12.410;2022-08-19T00:07:18;30.25;;;23.13;;
70416;SDS011;57839;51.332;12.410;2022-08-19T00:09:44;30.27;;;24.27;;
70416;SDS011;57839;51.332;12.410;2022-08-19T00:12:10;30.20;;;22.95;;
70416;SDS011;57839;51.332;12.410;2022-08-19T00:14:36;29.48;;;22.73;;
70416;SDS011;57839;51.332;12.410;2022-08-19T00:17:02;26.13;;;22.33;;
70416;SDS011;57839;51.332;12.410;2022-08-19T00:19:28;28.30;;;24.83;;
70416;SDS011;57839;51.332;12.410;2022-08-19T00:21:53;27.02;;;23.60;;
70416;SDS011;57839;51.332;12.410;2022-08-19T00:24:21;30.95;;;25.48;;
70416;SDS011;57839;51.332;12.410;2022-08-19T00:26:47;30.08;;;24.40;;
70416;SDS011;57839;51.332;12.410;2022-08-19T00:29:14;27.58;;;23.02;;
70416;SDS011;57839;51.332;12.410;2022-08-19T00:31:40;29.83;;;22.80;;
70416;SDS011;57839;51.332;12.410;2022-08-19T00:34:08;27.13;;;23.73;;
70416;SDS011;57839;51.332;12.410;2022-08-19T00:36:33;32.47;;;25.60;;
70416;SDS011;57839;51.332;12.410;2022-08-19T00:38:59;36.33;;;27.75;;
70416;SDS011;57839;51.332;12.410;2022-08-19T00:41:25;31.67;;;26.52;;
70416;SDS011;57839;51.332;12.410;2022-08-19T00:43:59;33.58;;;25.67;;
70416;SDS011;57839;51.332;12.410;2022-08-19T00:46:35;35.50;;;26.45;;
70416;SDS011;57839;51.332;12.410;2022-08-19T00:49:05;33.28;;;27.33;;
70416;SDS011;57839;51.332;12.410;2022-08-19T00:51:33;31.30;;;26.25;;
70416;SDS011;57839;51.332;12.410;2022-08-19T00:53:59;32.20;;;25.52;;
70416;SDS011;57839;51.332;12.410;2022-08-19T00:56:26;29.58;;;25.60;;
70416;SDS011;57839;51.332;12.410;2022-08-19T00:58:52;35.45;;;28.13;;
70416;SDS011;57839;51.332;12.410;2022-08-19T01:01:17;35.75;;;27.08;;
70416;SDS011;57839;51.332;12.410;2022-08-19T01:03:43;34.15;;;29.17;;
70416;SDS011;57839;51.332;12.410;2022-08-19T01:06:08;33.00;;;27.27;;
70416;SDS011;57839;51.332;12.410;2022-08-19T01:08:34;34.00;;;27.88;;
70416;SDS011;57839;51.332;12.410;2022-08-19T01:10:59;35.10;;;28.67;;
70416;SDS011;57839;51.332;12.410;2022-08-19T01:13:26;37.10;;;27.75;;
70416;SDS011;57839;51.332;12.410;2022-08-19T01:15:55;32.90;;;27.23;;
70416;SDS011;57839;51.332;12.410;2022-08-19T01:18:22;36.67;;;29.55;;
70416;SDS011;57839;51.332;12.410;2022-08-19T01:20:49;37.83;;;29.02;;
70416;SDS011;57839;51.332;12.410;2022-08-19T01:23:16;38.17;;;28.20;;
70416;SDS011;57839;51.332;12.410;2022-08-19T01:25:51;38.30;;;29.00;;
70416;SDS011;57839;51.332;12.410;2022-08-19T01:28:23;37.03;;;29.05;;
70416;SDS011;57839;51.332;12.410;2022-08-19T01:30:50;35.80;;;28.52;;
70416;SDS011;57839;51.332;12.410;2022-08-19T01:33:17;38.35;;;29.30;;
70416;SDS011;57839;51.332;12.410;2022-08-19T01:35:44;35.95;;;30.20;;
70416;SDS011;57839;51.332;12.410;2022-08-19T01:38:19;33.72;;;28.50;;
70416;SDS011;57839;51.332;12.410;2022-08-19T01:40:49;36.15;;;30.08;;
70416;SDS011;57839;51.332;12.410;2022-08-19T01:43:15;38.10;;;31.02;;
70416;SDS011;57839;51.332;12.410;2022-08-19T01:45:40;39.92;;;30.67;;
70416;SDS011;57839;51.332;12.410;2022-08-19T01:48:07;39.03;;;31.35;;
70416;SDS011;57839;51.332;12.410;2022-08-19T01:50:34;38.47;;;30.85;;
70416;SDS011;57839;51.332;12.410;2022-08-19T01:53:01;39.20;;;31.23;;
70416;SDS011;57839;51.332;12.410;2022-08-19T01:55:28;41.08;;;30.92;;
70416;SDS011;57839;51.332;12.410;2022-08-19T01:57:55;39.08;;;31.05;;
70416;SDS011;57839;51.332;12.410;2022-08-19T02:00:23;39.97;;;32.03;;
70416;SDS011;57839;51.332;12.410;2022-08-19T02:02:50;40.78;;;31.10;;
70416;SDS011;57839;51.332;12.410;2022-08-19T02:05:16;39.03;;;32.05;;
70416;SDS011;57839;51.332;12.410;2022-08-19T02:07:43;38.42;;;31.27;;
70416;SDS011;57839;51.332;12.410;2022-08-19T02:10:11;39.70;;;31.45;;
70416;SDS011;57839;51.332;12.410;2022-08-19T02:12:40;37.28;;;30.48;;
70416;SDS011;57839;51.332;12.410;2022-08-19T02:15:05;38.70;;;31.60;;
70416;SDS011;57839;51.332;12.410;2022-08-19T02:17:33;39.60;;;32.13;;
70416;SDS011;57839;51.332;12.410;2022-08-19T02:19:59;37.22;;;30.83;;
70416;SDS011;57839;51.332;12.410;2022-08-19T02:22:25;36.90;;;30.92;;
70416;SDS011;57839;51.332;12.410;2022-08-19T02:24:51;38.88;;;30.17;;
70416;SDS011;57839;51.332;12.410;2022-08-19T02:27:18;34.83;;;28.95;;
70416;SDS011;57839;51.332;12.410;2022-08-19T02:29:43;32.95;;;27.25;;
70416;SDS011;57839;51.332;12.410;2022-08-19T02:32:11;35.33;;;29.42;;
70416;SDS011;57839;51.332;12.410;2022-08-19T02:34:36;34.03;;;28.50;;
70416;SDS011;57839;51.332;12.410;2022-08-19T02:37:01;34.50;;;30.48;;
70416;SDS011;57839;51.332;12.410;2022-08-19T02:39:27;34.13;;;29.63;;
70416;SDS011;57839;51.332;12.410;2022-08-19T02:41:52;34.20;;;28.50;;
70416;SDS011;57839;51.332;12.410;2022-08-19T02:44:18;37.45;;;30.70;;
70416;SDS011;57839;51.332;12.410;2022-08-19T02:46:45;36.65;;;29.38;;
70416;SDS011;57839;51.332;12.410;2022-08-19T02:49:12;35.22;;;28.42;;
70416;SDS011;57839;51.332;12.410;2022-08-19T02:51:39;34.92;;;29.73;;
70416;SDS011;57839;51.332;12.410;2022-08-19T02:54:06;33.10;;;27.25;;
70416;SDS011;57839;51.332;12.410;2022-08-19T02:56:34;33.50;;;27.08;;
70416;SDS011;57839;51.332;12.410;2022-08-19T02:59:00;32.05;;;27.52;;
70416;SDS011;57839;51.332;12.410;2022-08-19T03:01:30;33.45;;;28.70;;
70416;SDS011;57839;51.332;12.410;2022-08-19T03:03:56;31.63;;;26.95;;
70416;SDS011;57839;51.332;12.410;2022-08-19T03:06:24;29.73;;;25.02;;
70416;SDS011;57839;51.332;12.410;2022-08-19T03:08:50;28.45;;;24.70;;
70416;SDS011;57839;51.332;12.410;2022-08-19T03:11:17;27.65;;;24.60;;
70416;SDS011;57839;51.332;12.410;2022-08-19T03:13:42;29.92;;;25.30;;
70416;SDS011;57839;51.332;12.410;2022-08-19T03:16:09;27.00;;;23.60;;
70416;SDS011;57839;51.332;12.410;2022-08-19T03:18:35;26.63;;;23.60;;
70416;SDS011;57839;51.332;12.410;2022-08-19T03:21:00;26.73;;;23.30;;
70416;SDS011;57839;51.332;12.410;2022-08-19T03:23:26;78.95;;;63.22;;
70416;SDS011;57839;51.332;12.410;2022-08-19T03:25:52;30.90;;;26.88;;
70416;SDS011;57839;51.332;12.410;2022-08-19T03:28:18;31.73;;;27.23;;
70416;SDS011;57839;51.332;12.410;2022-08-19T03:30:54;29.92;;;26.23;;
70416;SDS011;57839;51.332;12.410;2022-08-19T03:33:24;25.52;;;22.33;;
70416;SDS011;57839;51.332;12.410;2022-08-19T03:36:07;28.52;;;24.55;;
70416;SDS011;57839;51.332;12.410;2022-08-19T03:38:37;25.42;;;21.23;;
70416;SDS011;57839;51.332;12.410;2022-08-19T03:41:08;23.90;;;21.40;;
70416;SDS011;57839;51.332;12.410;2022-08-19T03:43:36;22.55;;;19.95;;
70416;SDS011;57839;51.332;12.410;2022-08-19T03:46:10;24.67;;;20.13;;
70416;SDS011;57839;51.332;12.410;2022-08-19T03:48:37;26.65;;;21.02;;
70416;SDS011;57839;51.332;12.410;2022-08-19T03:51:03;26.15;;;21.40;;
70416;SDS011;57839;51.332;12.410;2022-08-19T03:53:30;23.77;;;21.00;;
70416;SDS011;57839;51.332;12.410;2022-08-19T03:55:57;23.42;;;19.77;;
70416;SDS011;57839;51.332;12.410;2022-08-19T03:58:25;22.83;;;20.42;;
70416;SDS011;57839;51.332;12.410;2022-08-19T04:00:52;23.15;;;20.75;;
70416;SDS011;57839;51.332;12.410;2022-08-19T04:03:18;20.42;;;18.23;;
70416;SDS011;57839;51.332;12.410;2022-08-19T04:05:44;23.05;;;19.23;;
70416;SDS011;57839;51.332;12.410;2022-08-19T04:08:10;22.67;;;20.27;;
70416;SDS011;57839;51.332;12.410;2022-08-19T04:10:36;22.73;;;20.02;;
70416;SDS011;57839;51.332;12.410;2022-08-19T04:13:02;22.98;;;19.88;;
70416;SDS011;57839;51.332;12.410;2022-08-19T04:15:30;20.92;;;18.67;;
70416;SDS011;57839;51.332;12.410;2022-08-19T04:18:00;22.88;;;19.80;;
70416;SDS011;57839;51.332;12.410;2022-08-19T04:20:26;22.02;;;19.33;;
70416;SDS011;57839;51.332;12.410;2022-08-19T04:22:52;23.27;;;19.58;;
70416;SDS011;57839;51.332;12.410;2022-08-19T04:25:17;23.60;;;20.58;;
70416;SDS011;57839;51.332;12.410;2022-08-19T04:27:43;25.65;;;21.63;;
70416;SDS011;57839;51.332;12.410;2022-08-19T04:30:11;24.67;;;22.08;;
70416;SDS011;57839;51.332;12.410;2022-08-19T04:32:38;25.00;;;22.30;;
70416;SDS011;57839;51.332;12.410;2022-08-19T04:35:04;25.75;;;22.35;;
70416;SDS011;57839;51.332;12.410;2022-08-19T04:37:30;27.30;;;23.50;;
70416;SDS011;57839;51.332;12.410;2022-08-19T04:39:58;27.08;;;24.15;;
70416;SDS011;57839;51.332;12.410;2022-08-19T04:42:42;30.02;;;26.02;;
70416;SDS011;57839;51.332;12.410;2022-08-19T04:45:09;28.25;;;24.65;;
70416;SDS011;57839;51.332;12.410;2022-08-19T04:47:38;30.88;;;25.52;;
70416;SDS011;57839;51.332;12.410;2022-08-19T04:50:05;30.85;;;26.30;;
70416;SDS011;57839;51.332;12.410;2022-08-19T04:52:32;35.15;;;28.95;;
70416;SDS011;57839;51.332;12.410;2022-08-19T04:54:57;33.67;;;27.85;;
70416;SDS011;57839;51.332;12.410;2022-08-19T04:57:23;33.00;;;27.48;;
70416;SDS011;57839;51.332;12.410;2022-08-19T04:59:49;32.20;;;27.98;;
70416;SDS011;57839;51.332;12.410;2022-08-19T05:02:14;33.42;;;27.80;;
70416;SDS011;57839;51.332;12.410;2022-08-19T05:04:40;32.80;;;27.42;;
70416;SDS011;57839;51.332;12.410;2022-08-19T05:07:06;33.17;;;28.38;;
70416;SDS011;57839;51.332;12.410;2022-08-19T05:09:32;32.88;;;28.70;;
70416;SDS011;57839;51.332;12.410;2022-08-19T05:11:58;34.42;;;28.65;;
70416;SDS011;57839;51.332;12.410;2022-08-19T05:14:23;38.33;;;31.92;;
70416;SDS011;57839;51.332;12.410;2022-08-19T05:16:49;36.95;;;30.55;;
70416;SDS011;57839;51.332;12.410;2022-08-19T05:19:14;39.15;;;31.35;;
70416;SDS011;57839;51.332;12.410;2022-08-19T05:21:59;40.30;;;30.65;;
70416;SDS011;57839;51.332;12.410;2022-08-19T05:24:43;36.72;;;30.65;;
70416;SDS011;57839;51.332;12.410;2022-08-19T05:27:09;42.15;;;33.22;;
70416;SDS011;57839;51.332;12.410;2022-08-19T05:29:35;36.95;;;31.65;;
70416;SDS011;57839;51.332;12.410;2022-08-19T05:32:01;40.05;;;31.52;;
70416;SDS011;57839;51.332;12.410;2022-08-19T05:34:31;41.13;;;32.83;;
70416;SDS011;57839;51.332;12.410;2022-08-19T05:36:58;40.20;;;32.80;;
70416;SDS011;57839;51.332;12.410;2022-08-19T05:39:25;40.80;;;31.05;;
70416;SDS011;57839;51.332;12.410;2022-08-19T05:41:53;39.83;;;31.70;;
70416;SDS011;57839;51.332;12.410;2022-08-19T05:44:22;45.95;;;34.80;;
70416;SDS011;57839;51.332;12.410;2022-08-19T05:46:57;43.60;;;34.35;;
70416;SDS011;57839;51.332;12.410;2022-08-19T05:49:23;48.40;;;36.83;;
70416;SDS011;57839;51.332;12.410;2022-08-19T05:51:50;46.47;;;36.72;;
70416;SDS011;57839;51.332;12.410;2022-08-19T05:54:16;46.25;;;36.03;;
70416;SDS011;57839;51.332;12.410;2022-08-19T05:56:42;44.70;;;35.95;;
70416;SDS011;57839;51.332;12.410;2022-08-19T05:59:09;49.83;;;38.40;;
70416;SDS011;57839;51.332;12.410;2022-08-19T06:01:40;48.22;;;37.47;;
70416;SDS011;57839;51.332;12.410;2022-08-19T06:04:07;48.50;;;38.53;;
70416;SDS011;57839;51.332;12.410;2022-08-19T06:06:33;48.63;;;38.38;;
70416;SDS011;57839;51.332;12.410;2022-08-19T06:09:03;50.13;;;39.55;;
70416;SDS011;57839;51.332;12.410;2022-08-19T06:11:40;47.80;;;38.72;;
70416;SDS011;57839;51.332;12.410;2022-08-19T06:14:10;49.22;;;37.83;;
70416;SDS011;57839;51.332;12.410;2022-08-19T06:16:39;50.88;;;38.88;;
70416;SDS011;57839;51.332;12.410;2022-08-19T06:19:07;50.67;;;39.03;;
70416;SDS011;57839;51.332;12.410;2022-08-19T06:21:38;49.15;;;39.00;;
70416;SDS011;57839;51.332;12.410;2022-08-19T06:24:06;47.97;;;38.22;;
70416;SDS011;57839;51.332;12.410;2022-08-19T06:26:33;50.35;;;38.08;;
70416;SDS011;57839;51.332;12.410;2022-08-19T06:29:00;50.65;;;38.85;;
70416;SDS011;57839;51.332;12.410;2022-08-19T06:31:26;48.25;;;38.22;;
70416;SDS011;57839;51.332;12.410;2022-08-19T06:33:53;49.42;;;37.97;;
70416;SDS011;57839;51.332;12.410;2022-08-19T06:38:57;54.30;;;38.58;;
70416;SDS011;57839;51.332;12.410;2022-08-19T06:41:24;48.17;;;37.08;;
70416;SDS011;57839;51.332;12.410;2022-08-19T06:43:50;48.13;;;37.83;;
70416;SDS011;57839;51.332;12.410;2022-08-19T06:46:17;49.67;;;38.35;;
70416;SDS011;57839;51.332;12.410;2022-08-19T06:48:44;49.60;;;38.22;;
70416;SDS011;57839;51.332;12.410;2022-08-19T06:51:11;58.33;;;45.10;;
70416;SDS011;57839;51.332;12.410;2022-08-19T06:53:40;59.80;;;47.17;;
70416;SDS011;57839;51.332;12.410;2022-08-19T06:56:13;50.30;;;39.80;;
70416;SDS011;57839;51.332;12.410;2022-08-19T06:58:40;48.80;;;36.80;;
70416;SDS011;57839;51.332;12.410;2022-08-19T07:01:05;50.05;;;38.10;;
70416;SDS011;57839;51.332;12.410;2022-08-19T07:03:32;47.85;;;37.88;;
70416;SDS011;57839;51.332;12.410;2022-08-19T07:06:09;48.13;;;37.28;;
70416;SDS011;57839;51.332;12.410;2022-08-19T07:08:37;49.28;;;38.15;;
70416;SDS011;57839;51.332;12.410;2022-08-19T07:11:09;50.13;;;38.47;;
70416;SDS011;57839;51.332;12.410;2022-08-19T07:13:36;48.70;;;37.78;;
70416;SDS011;57839;51.332;12.410;2022-08-19T07:16:03;46.63;;;35.67;;
70416;SDS011;57839;51.332;12.410;2022-08-19T07:18:33;62.20;;;46.83;;
70416;SDS011;57839;51.332;12.410;2022-08-19T07:21:03;49.05;;;38.35;;
70416;SDS011;57839;51.332;12.410;2022-08-19T07:23:37;49.42;;;37.55;;
70416;SDS011;57839;51.332;12.410;2022-08-19T07:26:11;47.13;;;36.30;;
70416;SDS011;57839;51.332;12.410;2022-08-19T07:28:37;51.25;;;35.72;;
70416;SDS011;57839;51.332;12.410;2022-08-19T07:31:07;45.75;;;35.63;;
70416;SDS011;57839;51.332;12.410;2022-08-19T07:33:33;47.58;;;35.38;;
70416;SDS011;57839;51.332;12.410;2022-08-19T07:36:04;45.22;;;35.13;;
70416;SDS011;57839;51.332;12.410;2022-08-19T07:38:32;43.25;;;33.80;;
70416;SDS011;57839;51.332;12.410;2022-08-19T07:40:58;42.28;;;34.10;;
70416;SDS011;57839;51.332;12.410;2022-08-19T07:43:24;42.58;;;33.38;;
70416;SDS011;57839;51.332;12.410;2022-08-19T07:45:52;45.92;;;33.83;;
70416;SDS011;57839;51.332;12.410;2022-08-19T07:48:25;47.50;;;34.80;;
70416;SDS011;57839;51.332;12.410;2022-08-19T07:50:55;45.10;;;36.05;;
70416;SDS011;57839;51.332;12.410;2022-08-19T07:53:23;45.47;;;32.85;;
70416;SDS011;57839;51.332;12.410;2022-08-19T07:55:49;44.05;;;34.35;;
70416;SDS011;57839;51.332;12.410;2022-08-19T07:58:16;45.63;;;33.42;;
70416;SDS011;57839;51.332;12.410;2022-08-19T08:00:45;41.95;;;32.53;;
70416;SDS011;57839;51.332;12.410;2022-08-19T08:03:12;45.50;;;33.03;;
70416;SDS011;57839;51.332;12.410;2022-08-19T08:05:39;42.55;;;31.35;;
70416;SDS011;57839;51.332;12.410;2022-08-19T08:08:23;55.63;;;32.53;;
70416;SDS011;57839;51.332;12.410;2022-08-19T08:11:07;42.13;;;31.00;;
70416;SDS011;57839;51.332;12.410;2022-08-19T08:13:33;45.40;;;32.22;;
70416;SDS011;57839;51.332;12.410;2022-08-19T08:16:00;48.53;;;33.03;;
70416;SDS011;57839;51.332;12.410;2022-08-19T08:18:26;44.75;;;33.15;;
70416;SDS011;57839;51.332;12.410;2022-08-19T08:20:52;36.40;;;31.17;;
70416;SDS011;57839;51.332;12.410;2022-08-19T08:23:18;41.20;;;31.58;;
70416;SDS011;57839;51.332;12.410;2022-08-19T08:25:56;42.90;;;31.85;;
70416;SDS011;57839;51.332;12.410;2022-08-19T08:28:23;41.85;;;31.58;;
70416;SDS011;57839;51.332;12.410;2022-08-19T08:30:50;39.42;;;31.55;;
70416;SDS011;57839;51.332;12.410;2022-08-19T08:33:19;42.97;;;32.10;;
70416;SDS011;57839;51.332;12.410;2022-08-19T08:35:46;44.22;;;32.17;;
70416;SDS011;57839;51.332;12.410;2022-08-19T08:38:12;54.70;;;38.80;;
70416;SDS011;57839;51.332;12.410;2022-08-19T08:43:35;43.63;;;33.92;;
70416;SDS011;57839;51.332;12.410;2022-08-19T08:46:03;40.83;;;32.80;;
70416;SDS011;57839;51.332;12.410;2022-08-19T08:51:03;38.47;;;31.38;;
70416;SDS011;57839;51.332;12.410;2022-08-19T08:53:30;37.75;;;30.55;;
70416;SDS011;57839;51.332;12.410;2022-08-19T08:55:59;40.15;;;30.67;;
70416;SDS011;57839;51.332;12.410;2022-08-19T08:58:30;36.88;;;30.35;;
70416;SDS011;57839;51.332;12.410;2022-08-19T09:01:16;38.25;;;29.70;;
70416;SDS011;57839;51.332;12.410;2022-08-19T09:03:42;37.80;;;30.08;;
70416;SDS011;57839;51.332;12.410;2022-08-19T09:06:14;35.95;;;29.65;;
70416;SDS011;57839;51.332;12.410;2022-08-19T09:12:01;36.40;;;28.00;;
70416;SDS011;57839;51.332;12.410;2022-08-19T09:16:54;59.00;;;45.67;;
70416;SDS011;57839;51.332;12.410;2022-08-19T09:19:19;40.63;;;30.95;;
70416;SDS011;57839;51.332;12.410;2022-08-19T09:21:45;34.50;;;29.70;;
70416;SDS011;57839;51.332;12.410;2022-08-19T09:24:10;42.25;;;30.35;;
70416;SDS011;57839;51.332;12.410;2022-08-19T09:26:36;40.72;;;30.35;;
70416;SDS011;57839;51.332;12.410;2022-08-19T09:29:02;43.05;;;30.45;;
70416;SDS011;57839;51.332;12.410;2022-08-19T09:31:30;37.85;;;30.17;;
70416;SDS011;57839;51.332;12.410;2022-08-19T09:33:57;36.47;;;29.08;;
70416;SDS011;57839;51.332;12.410;2022-08-19T09:36:24;37.95;;;29.27;;
70416;SDS011;57839;51.332;12.410;2022-08-19T09:38:51;38.30;;;30.23;;
70416;SDS011;57839;51.332;12.410;2022-08-19T09:41:18;43.40;;;29.83;;
70416;SDS011;57839;51.332;12.410;2022-08-19T09:43:46;40.10;;;30.48;;
70416;SDS011;57839;51.332;12.410;2022-08-19T09:46:13;42.67;;;32.33;;
70416;SDS011;57839;51.332;12.410;2022-08-19T09:48:41;41.22;;;30.15;;
70416;SDS011;57839;51.332;12.410;2022-08-19T09:51:13;41.75;;;31.45;;
70416;SDS011;57839;51.332;12.410;2022-08-19T09:53:41;48.30;;;35.45;;
70416;SDS011;57839;51.332;12.410;2022-08-19T09:56:08;37.45;;;30.25;;
70416;SDS011;57839;51.332;12.410;2022-08-19T09:58:34;35.38;;;29.70;;
70416;SDS011;57839;51.332;12.410;2022-08-19T10:01:01;37.35;;;29.23;;
70416;SDS011;57839;51.332;12.410;2022-08-19T10:03:28;35.58;;;29.27;;
70416;SDS011;57839;51.332;12.410;2022-08-19T10:05:56;45.83;;;29.40;;
70416;SDS011;57839;51.332;12.410;2022-08-19T10:08:23;38.70;;;28.27;;
70416;SDS011;57839;51.332;12.410;2022-08-19T10:10:51;33.13;;;24.70;;
70416;SDS011;57839;51.332;12.410;2022-08-19T10:13:17;33.45;;;24.58;;
70416;SDS011;57839;51.332;12.410;2022-08-19T10:15:48;33.03;;;25.33;;
70416;SDS011;57839;51.332;12.410;2022-08-19T10:18:17;29.13;;;24.75;;
70416;SDS011;57839;51.332;12.410;2022-08-19T10:20:45;29.75;;;24.05;;
70416;SDS011;57839;51.332;12.410;2022-08-19T10:23:12;29.63;;;23.35;;
70416;SDS011;57839;51.332;12.410;2022-08-19T10:25:38;25.17;;;22.45;;
70416;SDS011;57839;51.332;12.410;2022-08-19T10:28:03;27.40;;;22.33;;
70416;SDS011;57839;51.332;12.410;2022-08-19T10:30:31;25.42;;;20.90;;
70416;SDS011;57839;51.332;12.410;2022-08-19T10:32:57;25.98;;;21.15;;
70416;SDS011;57839;51.332;12.410;2022-08-19T10:35:22;26.40;;;21.33;;
70416;SDS011;57839;51.332;12.410;2022-08-19T10:37:49;22.73;;;19.55;;
70416;SDS011;57839;51.332;12.410;2022-08-19T10:40:15;23.10;;;19.77;;
70416;SDS011;57839;51.332;12.410;2022-08-19T10:42:40;22.60;;;19.23;;
70416;SDS011;57839;51.332;12.410;2022-08-19T10:45:06;23.65;;;20.00;;
70416;SDS011;57839;51.332;12.410;2022-08-19T10:47:32;93.22;;;73.50;;
70416;SDS011;57839;51.332;12.410;2022-08-19T10:49:59;24.85;;;20.63;;
70416;SDS011;57839;51.332;12.410;2022-08-19T10:52:44;22.27;;;18.70;;
70416;SDS011;57839;51.332;12.410;2022-08-19T10:55:11;21.45;;;19.20;;
70416;SDS011;57839;51.332;12.410;2022-08-19T10:57:55;21.90;;;18.70;;
70416;SDS011;57839;51.332;12.410;2022-08-19T11:00:22;23.10;;;18.65;;
70416;SDS011;57839;51.332;12.410;2022-08-19T11:02:48;26.48;;;18.83;;
70416;SDS011;57839;51.332;12.410;2022-08-19T11:05:14;26.60;;;19.48;;
70416;SDS011;57839;51.332;12.410;2022-08-19T11:07:40;29.65;;;19.20;;
70416;SDS011;57839;51.332;12.410;2022-08-19T11:10:08;30.25;;;21.98;;
70416;SDS011;57839;51.332;12.410;2022-08-19T11:12:38;44.92;;;34.53;;
70416;SDS011;57839;51.332;12.410;2022-08-19T11:15:05;25.00;;;19.13;;
70416;SDS011;57839;51.332;12.410;2022-08-19T11:17:32;27.38;;;19.48;;
70416;SDS011;57839;51.332;12.410;2022-08-19T11:19:58;23.10;;;18.67;;
70416;SDS011;57839;51.332;12.410;2022-08-19T11:22:28;25.33;;;18.42;;
70416;SDS011;57839;51.332;12.410;2022-08-19T11:24:53;24.77;;;18.52;;
70416;SDS011;57839;51.332;12.410;2022-08-19T11:27:20;20.95;;;17.20;;
70416;SDS011;57839;51.332;12.410;2022-08-19T11:29:46;21.90;;;17.75;;
70416;SDS011;57839;51.332;12.410;2022-08-19T11:32:11;24.92;;;18.60;;
70416;SDS011;57839;51.332;12.410;2022-08-19T11:34:38;21.10;;;15.95;;
70416;SDS011;57839;51.332;12.410;2022-08-19T11:37:04;21.25;;;16.48;;
70416;SDS011;57839;51.332;12.410;2022-08-19T11:39:34;19.63;;;15.40;;
70416;SDS011;57839;51.332;12.410;2022-08-19T11:42:02;20.02;;;15.13;;
70416;SDS011;57839;51.332;12.410;2022-08-19T11:44:48;17.42;;;14.10;;
70416;SDS011;57839;51.332;12.410;2022-08-19T11:47:14;17.38;;;14.93;;
70416;SDS011;57839;51.332;12.410;2022-08-19T11:49:40;20.48;;;16.48;;
70416;SDS011;57839;51.332;12.410;2022-08-19T11:52:06;18.48;;;15.18;;
70416;SDS011;57839;51.332;12.410;2022-08-19T11:54:32;24.20;;;15.57;;
70416;SDS011;57839;51.332;12.410;2022-08-19T11:56:58;21.95;;;15.07;;
70416;SDS011;57839;51.332;12.410;2022-08-19T11:59:24;19.13;;;14.05;;
70416;SDS011;57839;51.332;12.410;2022-08-19T12:01:51;17.52;;;14.30;;
70416;SDS011;57839;51.332;12.410;2022-08-19T12:04:17;18.42;;;14.13;;
70416;SDS011;57839;51.332;12.410;2022-08-19T12:06:42;17.77;;;14.77;;
70416;SDS011;57839;51.332;12.410;2022-08-19T12:09:08;18.92;;;14.90;;
70416;SDS011;57839;51.332;12.410;2022-08-19T12:11:35;18.48;;;14.57;;
70416;SDS011;57839;51.332;12.410;2022-08-19T12:14:02;18.60;;;14.93;;
70416;SDS011;57839;51.332;12.410;2022-08-19T12:16:29;20.48;;;14.02;;
70416;SDS011;57839;51.332;12.410;2022-08-19T12:18:56;18.45;;;14.02;;
70416;SDS011;57839;51.332;12.410;2022-08-19T12:21:24;16.38;;;13.18;;
70416;SDS011;57839;51.332;12.410;2022-08-19T12:23:54;16.95;;;13.50;;
70416;SDS011;57839;51.332;12.410;2022-08-19T12:26:21;22.65;;;17.35;;
70416;SDS011;57839;51.332;12.410;2022-08-19T12:28:47;18.98;;;14.88;;
70416;SDS011;57839;51.332;12.410;2022-08-19T12:31:13;15.65;;;12.25;;
70416;SDS011;57839;51.332;12.410;2022-08-19T12:33:40;17.75;;;12.38;;
70416;SDS011;57839;51.332;12.410;2022-08-19T12:36:07;16.80;;;13.07;;
70416;SDS011;57839;51.332;12.410;2022-08-19T12:38:35;16.45;;;13.02;;
70416;SDS011;57839;51.332;12.410;2022-08-19T12:41:01;15.25;;;12.15;;
70416;SDS011;57839;51.332;12.410;2022-08-19T12:43:30;15.10;;;12.20;;
70416;SDS011;57839;51.332;12.410;2022-08-19T12:45:56;13.43;;;12.02;;
70416;SDS011;57839;51.332;12.410;2022-08-19T12:48:22;14.70;;;13.20;;
70416;SDS011;57839;51.332;12.410;2022-08-19T12:50:48;14.95;;;11.77;;
70416;SDS011;57839;51.332;12.410;2022-08-19T12:53:14;15.45;;;13.15;;
70416;SDS011;57839;51.332;12.410;2022-08-19T12:55:41;14.77;;;12.82;;
70416;SDS011;57839;51.332;12.410;2022-08-19T12:58:07;16.10;;;13.73;;
70416;SDS011;57839;51.332;12.410;2022-08-19T13:00:33;15.70;;;14.07;;
70416;SDS011;57839;51.332;12.410;2022-08-19T13:02:59;18.90;;;15.10;;
70416;SDS011;57839;51.332;12.410;2022-08-19T13:05:27;17.30;;;14.48;;
70416;SDS011;57839;51.332;12.410;2022-08-19T13:07:54;17.83;;;14.93;;
70416;SDS011;57839;51.332;12.410;2022-08-19T13:10:23;17.42;;;14.27;;
70416;SDS011;57839;51.332;12.410;2022-08-19T13:12:50;16.75;;;14.00;;
70416;SDS011;57839;51.332;12.410;2022-08-19T13:15:18;16.00;;;14.20;;
70416;SDS011;57839;51.332;12.410;2022-08-19T13:17:46;18.25;;;15.40;;
70416;SDS011;57839;51.332;12.410;2022-08-19T13:20:14;15.93;;;14.32;;
70416;SDS011;57839;51.332;12.410;2022-08-19T13:22:42;13.30;;;11.50;;
70416;SDS011;57839;51.332;12.410;2022-08-19T13:25:09;14.98;;;13.40;;
70416;SDS011;57839;51.332;12.410;2022-08-19T13:27:35;16.52;;;14.70;;
70416;SDS011;57839;51.332;12.410;2022-08-19T13:30:03;18.42;;;15.48;;
70416;SDS011;57839;51.332;12.410;2022-08-19T13:32:48;15.43;;;13.82;;
70416;SDS011;57839;51.332;12.410;2022-08-19T13:35:32;14.95;;;12.70;;
70416;SDS011;57839;51.332;12.410;2022-08-19T13:37:58;21.98;;;16.73;;
70416;SDS011;57839;51.332;12.410;2022-08-19T13:40:24;18.98;;;16.10;;
70416;SDS011;57839;51.332;12.410;2022-08-19T13:42:52;20.42;;;15.18;;
70416;SDS011;57839;51.332;12.410;2022-08-19T13:45:20;17.52;;;15.02;;
70416;SDS011;57839;51.332;12.410;2022-08-19T13:47:48;18.17;;;15.52;;
70416;SDS011;57839;51.332;12.410;2022-08-19T13:50:19;22.02;;;16.40;;
70416;SDS011;57839;51.332;12.410;2022-08-19T13:52:46;19.13;;;16.23;;
70416;SDS011;57839;51.332;12.410;2022-08-19T13:55:13;22.00;;;16.65;;
70416;SDS011;57839;51.332;12.410;2022-08-19T13:57:39;17.60;;;15.10;;
70416;SDS011;57839;51.332;12.410;2022-08-19T14:00:08;45.65;;;40.72;;
70416;SDS011;57839;51.332;12.410;2022-08-19T14:02:36;21.50;;;16.83;;
70416;SDS011;57839;51.332;12.410;2022-08-19T14:05:03;19.42;;;16.15;;
70416;SDS011;57839;51.332;12.410;2022-08-19T14:07:30;17.80;;;15.45;;
70416;SDS011;57839;51.332;12.410;2022-08-19T14:09:57;18.75;;;16.42;;
70416;SDS011;57839;51.332;12.410;2022-08-19T14:12:22;18.30;;;15.48;;
70416;SDS011;57839;51.332;12.410;2022-08-19T14:14:48;17.88;;;15.35;;
70416;SDS011;57839;51.332;12.410;2022-08-19T14:17:14;20.75;;;16.38;;
70416;SDS011;57839;51.332;12.410;2022-08-19T14:19:41;20.45;;;15.95;;
70416;SDS011;57839;51.332;12.410;2022-08-19T14:22:07;20.50;;;15.13;;
70416;SDS011;57839;51.332;12.410;2022-08-19T14:24:33;17.25;;;14.52;;
70416;SDS011;57839;51.332;12.410;2022-08-19T14:26:58;18.90;;;16.02;;